createdAt,value
2019-05-16T00:00:49.771Z,0.00
2019-05-16T00:01:49.557Z,0.00
2019-05-16T00:02:49.544Z,0.00
2019-05-16T00:03:49.526Z,0.00
2019-05-16T00:04:49.517Z,0.00
2019-05-16T00:05:54.218Z,0.00
2019-05-16T00:06:50.496Z,0.00
2019-05-16T00:07:49.481Z,0.00
2019-05-16T00:08:49.475Z,0.00
2019-05-16T00:09:49.462Z,0.00
2019-05-16T00:10:49.450Z,0.00
2019-05-16T00:11:49.456Z,0.00
2019-05-16T00:12:49.432Z,0.00
2019-05-16T00:13:49.416Z,0.00
2019-05-16T00:14:49.403Z,0.00
2019-05-16T00:15:49.399Z,0.00
2019-05-16T00:16:49.388Z,0.00
2019-05-16T00:17:49.381Z,0.00
2019-05-16T00:18:49.359Z,0.00
2019-05-16T00:19:49.348Z,0.00
2019-05-16T00:20:49.399Z,0.00
2019-05-16T00:21:49.324Z,0.00
2019-05-16T00:22:49.318Z,0.00
2019-05-16T00:23:50.003Z,0.00
2019-05-16T00:24:49.296Z,0.00
2019-05-16T00:25:49.285Z,0.00
2019-05-16T00:27:03.024Z,0.00
2019-05-16T00:27:49.277Z,0.00
2019-05-16T00:28:49.251Z,0.00
2019-05-16T00:29:49.240Z,0.00
2019-05-16T00:30:49.233Z,0.00
2019-05-16T00:31:49.212Z,0.00
2019-05-16T00:32:49.204Z,0.00
2019-05-16T00:33:49.221Z,0.00
2019-05-16T00:34:49.184Z,0.00
2019-05-16T00:36:01.993Z,0.00
2019-05-16T00:36:50.161Z,0.00
2019-05-16T00:37:49.149Z,0.00
2019-05-16T00:38:49.144Z,0.00
2019-05-16T00:39:49.192Z,0.00
2019-05-16T00:40:49.112Z,0.00
2019-05-16T00:41:49.106Z,0.00
2019-05-16T00:42:49.440Z,0.00
2019-05-16T00:43:50.001Z,0.00
2019-05-16T00:44:49.081Z,0.00
2019-05-16T00:45:49.083Z,0.00
2019-05-16T00:46:49.047Z,0.00
2019-05-16T00:47:49.039Z,0.00
2019-05-16T00:48:49.029Z,0.00
2019-05-16T00:49:49.015Z,0.00
2019-05-16T00:50:49.049Z,0.00
2019-05-16T00:51:49.007Z,0.00
2019-05-16T00:52:48.990Z,0.00
2019-05-16T00:53:48.977Z,0.00
2019-05-16T00:54:48.967Z,0.00
2019-05-16T00:55:48.956Z,5.62
2019-05-16T00:56:48.977Z,5.62
2019-05-16T00:58:01.970Z,5.62
2019-05-16T00:58:48.930Z,5.62
2019-05-16T00:59:48.917Z,5.62
2019-05-16T01:00:49.753Z,5.62
2019-05-16T01:01:50.131Z,5.62
2019-05-16T01:02:48.894Z,5.62
2019-05-16T01:03:48.872Z,5.62
2019-05-16T01:04:48.864Z,5.62
2019-05-16T01:05:48.909Z,5.62
2019-05-16T01:06:49.528Z,5.62
2019-05-16T01:07:49.073Z,11.25
2019-05-16T01:08:49.048Z,11.25
2019-05-16T01:09:48.940Z,11.25
2019-05-16T01:10:51.397Z,11.25
2019-05-16T01:11:48.813Z,11.25
2019-05-16T01:12:48.769Z,11.25
2019-05-16T01:13:48.916Z,11.25
2019-05-16T01:14:48.752Z,11.25
2019-05-16T01:15:48.877Z,16.88
2019-05-16T01:16:48.910Z,16.88
2019-05-16T01:17:48.724Z,16.88
2019-05-16T01:18:48.916Z,16.88
2019-05-16T01:19:48.737Z,16.88
2019-05-16T01:20:48.695Z,16.88
2019-05-16T01:21:48.672Z,16.88
2019-05-16T01:22:49.178Z,22.50
2019-05-16T01:23:48.650Z,22.50
2019-05-16T01:24:49.277Z,22.50
2019-05-16T01:25:48.685Z,22.50
2019-05-16T01:26:48.621Z,22.50
2019-05-16T01:27:48.701Z,28.12
2019-05-16T01:29:00.619Z,28.12
2019-05-16T01:29:48.581Z,28.12
2019-05-16T01:30:49.060Z,28.12
2019-05-16T01:31:48.562Z,28.12
2019-05-16T01:32:49.277Z,33.75
2019-05-16T01:33:48.551Z,33.75
2019-05-16T01:34:48.534Z,33.75
2019-05-16T01:35:48.517Z,33.75
2019-05-16T01:36:48.746Z,39.38
2019-05-16T01:37:48.948Z,39.38
2019-05-16T01:38:48.485Z,39.38
2019-05-16T01:39:48.545Z,39.38
2019-05-16T01:40:49.118Z,45.00
2019-05-16T01:41:48.455Z,45.00
2019-05-16T01:42:48.945Z,45.00
2019-05-16T01:43:48.548Z,45.00
2019-05-16T01:44:48.809Z,50.62
2019-05-16T01:45:48.851Z,50.62
2019-05-16T01:46:48.399Z,50.62
2019-05-16T01:47:48.424Z,50.62
2019-05-16T01:48:48.638Z,56.25
2019-05-16T01:49:48.890Z,56.25
2019-05-16T01:50:48.412Z,56.25
2019-05-16T01:51:48.561Z,61.88
2019-05-16T01:52:48.892Z,61.88
2019-05-16T01:53:48.990Z,61.88
2019-05-16T01:54:48.311Z,61.88
2019-05-16T01:55:48.871Z,67.50
2019-05-16T01:56:48.287Z,67.50
2019-05-16T01:57:48.301Z,67.50
2019-05-16T01:58:48.943Z,73.12
2019-05-16T02:00:00.105Z,73.12
2019-05-16T02:00:58.794Z,73.12
2019-05-16T02:01:49.230Z,78.75
2019-05-16T02:02:48.808Z,78.75
2019-05-16T02:03:48.277Z,78.75
2019-05-16T02:04:48.582Z,84.38
2019-05-16T02:05:48.249Z,84.38
2019-05-16T02:06:54.256Z,84.38
2019-05-16T02:07:49.178Z,90.00
2019-05-16T02:08:48.725Z,90.00
2019-05-16T02:09:48.142Z,90.00
2019-05-16T02:10:48.157Z,95.62
2019-05-16T02:11:48.219Z,95.62
2019-05-16T02:12:48.969Z,95.62
2019-05-16T02:13:48.603Z,101.25
2019-05-16T02:14:48.226Z,101.25
2019-05-16T02:15:48.920Z,101.25
2019-05-16T02:16:48.060Z,101.25
2019-05-16T02:17:48.646Z,106.88
2019-05-16T02:18:48.893Z,106.88
2019-05-16T02:19:48.538Z,106.88
2019-05-16T02:20:48.206Z,112.50
2019-05-16T02:21:50.452Z,112.50
2019-05-16T02:22:48.307Z,118.12
2019-05-16T02:23:48.972Z,118.12
2019-05-16T02:24:48.108Z,118.12
2019-05-16T02:25:48.909Z,123.75
2019-05-16T02:26:49.306Z,123.75
2019-05-16T02:27:48.924Z,123.75
2019-05-16T02:28:50.556Z,129.38
2019-05-16T02:29:47.914Z,129.38
2019-05-16T02:31:01.514Z,129.38
2019-05-16T02:31:51.111Z,135.00
2019-05-16T02:32:47.895Z,135.00
2019-05-16T02:33:50.823Z,140.62
2019-05-16T02:34:47.867Z,140.62
2019-05-16T02:35:51.640Z,140.62
2019-05-16T02:37:08.321Z,174.38
2019-05-16T02:37:54.696Z,331.88
2019-05-16T02:38:54.942Z,562.50
2019-05-16T02:39:51.601Z,776.25
2019-05-16T02:40:54.386Z,961.88
2019-05-16T02:41:51.814Z,1068.75
2019-05-16T02:42:47.776Z,1080.00
2019-05-16T02:43:50.653Z,1102.50
2019-05-16T02:44:50.986Z,1136.25
2019-05-16T02:45:47.743Z,1164.38
2019-05-16T02:46:50.708Z,1175.62
2019-05-16T02:47:51.118Z,1158.75
2019-05-16T02:48:47.742Z,1181.25
2019-05-16T02:49:50.299Z,1248.75
2019-05-16T02:50:50.924Z,1226.25
2019-05-16T02:51:50.940Z,1220.62
2019-05-16T02:52:47.658Z,1226.25
2019-05-16T02:53:50.787Z,1220.62
2019-05-16T02:54:47.648Z,1265.62
2019-05-16T02:55:47.765Z,1293.75
2019-05-16T02:56:50.462Z,1310.62
2019-05-16T02:57:47.630Z,1344.38
2019-05-16T02:58:47.608Z,1333.12
2019-05-16T02:59:50.706Z,1310.62
2019-05-16T03:00:51.212Z,1383.75
2019-05-16T03:02:02.158Z,1383.75
2019-05-16T03:02:56.133Z,1366.88
2019-05-16T03:03:47.531Z,1366.88
2019-05-16T03:04:47.525Z,1378.12
2019-05-16T03:05:50.594Z,1366.88
2019-05-16T03:06:47.505Z,1372.50
2019-05-16T03:07:47.810Z,1411.88
2019-05-16T03:08:47.484Z,1456.88
2019-05-16T03:09:47.472Z,1434.38
2019-05-16T03:10:47.471Z,1456.88
2019-05-16T03:11:50.818Z,1485.00
2019-05-16T03:12:47.443Z,1490.62
2019-05-16T03:13:47.425Z,1535.62
2019-05-16T03:14:50.379Z,1518.75
2019-05-16T03:15:50.889Z,1518.75
2019-05-16T03:16:50.409Z,1479.38
2019-05-16T03:17:47.400Z,1451.25
2019-05-16T03:18:47.467Z,1496.25
2019-05-16T03:19:50.836Z,1569.38
2019-05-16T03:20:47.375Z,1597.50
2019-05-16T03:21:50.790Z,1563.75
2019-05-16T03:22:47.327Z,1608.75
2019-05-16T03:23:50.585Z,1546.88
2019-05-16T03:24:47.351Z,1524.38
2019-05-16T03:25:50.524Z,1569.38
2019-05-16T03:26:47.282Z,1608.75
2019-05-16T03:27:47.266Z,1580.62
2019-05-16T03:28:47.253Z,1558.12
2019-05-16T03:29:50.465Z,1530.00
2019-05-16T03:30:47.286Z,1575.00
2019-05-16T03:31:47.230Z,1659.38
2019-05-16T03:32:47.232Z,1653.75
2019-05-16T03:34:06.918Z,1603.12
2019-05-16T03:34:54.152Z,1603.12
2019-05-16T03:35:53.716Z,1597.50
2019-05-16T03:36:53.612Z,1620.00
2019-05-16T03:37:55.534Z,1665.00
2019-05-16T03:38:50.673Z,1693.12
2019-05-16T03:39:47.148Z,1670.62
2019-05-16T03:40:50.877Z,1636.88
2019-05-16T03:41:47.121Z,1676.25
2019-05-16T03:42:47.184Z,1687.50
2019-05-16T03:43:47.113Z,1681.88
2019-05-16T03:44:47.083Z,1755.00
2019-05-16T03:45:47.084Z,1783.12
2019-05-16T03:46:47.079Z,1766.25
2019-05-16T03:47:47.063Z,1693.12
2019-05-16T03:48:47.041Z,1721.25
2019-05-16T03:49:47.028Z,1749.38
2019-05-16T03:50:47.017Z,1715.62
2019-05-16T03:51:47.001Z,1693.12
2019-05-16T03:52:47.037Z,1766.25
2019-05-16T03:53:46.986Z,1794.38
2019-05-16T03:54:46.970Z,1715.62
2019-05-16T03:55:46.953Z,1794.38
2019-05-16T03:56:46.961Z,1732.50
2019-05-16T03:57:46.954Z,1715.62
2019-05-16T03:58:46.964Z,1749.38
2019-05-16T03:59:46.935Z,1743.75
2019-05-16T04:00:46.926Z,1755.00
2019-05-16T04:01:46.919Z,1749.38
2019-05-16T04:02:46.926Z,1766.25
2019-05-16T04:03:47.025Z,1794.38
2019-05-16T04:05:01.794Z,1794.38
2019-05-16T04:05:47.738Z,1805.62
2019-05-16T04:06:46.873Z,1755.00
2019-05-16T04:07:46.857Z,1743.75
2019-05-16T04:08:46.863Z,1771.88
2019-05-16T04:09:46.856Z,1771.88
2019-05-16T04:10:46.796Z,1766.25
2019-05-16T04:11:46.785Z,1738.12
2019-05-16T04:12:46.788Z,1732.50
2019-05-16T04:13:46.774Z,1755.00
2019-05-16T04:14:46.866Z,1816.88
2019-05-16T04:15:46.744Z,1845.00
2019-05-16T04:16:46.739Z,1828.12
2019-05-16T04:17:46.725Z,1828.12
2019-05-16T04:18:46.713Z,1895.62
2019-05-16T04:19:46.699Z,1884.38
2019-05-16T04:20:46.696Z,1856.25
2019-05-16T04:21:46.682Z,1963.12
2019-05-16T04:22:46.679Z,1996.88
2019-05-16T04:23:46.654Z,1974.38
2019-05-16T04:24:46.649Z,2036.25
2019-05-16T04:25:46.772Z,2109.38
2019-05-16T04:26:46.694Z,2075.62
2019-05-16T04:27:46.675Z,2036.25
2019-05-16T04:28:46.643Z,2081.25
2019-05-16T04:29:46.610Z,2058.75
2019-05-16T04:30:46.583Z,1929.38
2019-05-16T04:31:46.585Z,1901.25
2019-05-16T04:32:46.563Z,1895.62
2019-05-16T04:33:46.570Z,1923.75
2019-05-16T04:34:46.532Z,1822.50
2019-05-16T04:36:01.322Z,1760.62
2019-05-16T04:36:46.557Z,1715.62
2019-05-16T04:37:46.500Z,1670.62
2019-05-16T04:38:47.091Z,1653.75
2019-05-16T04:39:46.574Z,1681.88
2019-05-16T04:40:46.470Z,1569.38
2019-05-16T04:41:46.456Z,1631.25
2019-05-16T04:42:46.487Z,1704.38
2019-05-16T04:43:46.470Z,1704.38
2019-05-16T04:44:46.429Z,1788.75
2019-05-16T04:45:46.512Z,1732.50
2019-05-16T04:46:46.403Z,1726.88
2019-05-16T04:47:46.409Z,1670.62
2019-05-16T04:48:46.532Z,1608.75
2019-05-16T04:49:46.432Z,1501.88
2019-05-16T04:50:47.265Z,1428.75
2019-05-16T04:51:46.355Z,1411.88
2019-05-16T04:52:46.343Z,1423.12
2019-05-16T04:53:46.346Z,1434.38
2019-05-16T04:54:46.336Z,1417.50
2019-05-16T04:55:46.320Z,1271.25
2019-05-16T04:56:46.368Z,1395.00
2019-05-16T04:57:46.289Z,1372.50
2019-05-16T04:58:46.286Z,1333.12
2019-05-16T04:59:46.894Z,1321.88
2019-05-16T05:00:51.774Z,1243.12
2019-05-16T05:01:50.846Z,1265.62
2019-05-16T05:02:46.305Z,1327.50
2019-05-16T05:04:01.906Z,1338.75
2019-05-16T05:04:50.703Z,1333.12
2019-05-16T05:05:46.212Z,1327.50
2019-05-16T05:07:00.537Z,1366.88
2019-05-16T05:07:53.192Z,1333.12
2019-05-16T05:08:54.526Z,1260.00
2019-05-16T05:09:47.160Z,1248.75
2019-05-16T05:10:46.338Z,1226.25
2019-05-16T05:11:46.626Z,1231.88
2019-05-16T05:12:46.327Z,1209.38
2019-05-16T05:13:46.166Z,1215.00
2019-05-16T05:14:46.110Z,1192.50
2019-05-16T05:15:46.117Z,967.50
2019-05-16T05:16:46.101Z,765.00
2019-05-16T05:17:46.073Z,708.75
2019-05-16T05:18:46.059Z,714.38
2019-05-16T05:19:46.075Z,714.38
2019-05-16T05:20:46.031Z,697.50
2019-05-16T05:21:46.452Z,680.62
2019-05-16T05:22:46.020Z,680.62
2019-05-16T05:23:46.007Z,663.75
2019-05-16T05:24:45.994Z,658.12
2019-05-16T05:25:45.987Z,680.62
2019-05-16T05:26:45.982Z,720.00
2019-05-16T05:27:45.985Z,787.50
2019-05-16T05:28:45.950Z,860.62
2019-05-16T05:29:45.933Z,956.25
2019-05-16T05:30:45.944Z,1203.75
2019-05-16T05:31:45.961Z,1518.75
2019-05-16T05:32:45.904Z,1530.00
2019-05-16T05:33:45.910Z,1293.75
2019-05-16T05:34:45.894Z,1198.12
2019-05-16T05:35:45.887Z,1198.12
2019-05-16T05:36:45.861Z,1170.00
2019-05-16T05:37:45.950Z,1029.38
2019-05-16T05:39:09.010Z,928.12
2019-05-16T05:39:46.829Z,900.00
2019-05-16T05:40:45.942Z,860.62
2019-05-16T05:41:45.808Z,894.38
2019-05-16T05:42:45.798Z,900.00
2019-05-16T05:43:45.828Z,787.50
2019-05-16T05:44:45.789Z,776.25
2019-05-16T05:45:45.770Z,798.75
2019-05-16T05:46:45.755Z,804.38
2019-05-16T05:47:45.808Z,798.75
2019-05-16T05:48:46.367Z,798.75
2019-05-16T05:49:45.737Z,776.25
2019-05-16T05:50:45.721Z,753.75
2019-05-16T05:51:45.722Z,736.88
2019-05-16T05:52:46.256Z,748.12
2019-05-16T05:53:45.689Z,731.25
2019-05-16T05:54:45.727Z,748.12
2019-05-16T05:55:45.678Z,742.50
2019-05-16T05:56:45.696Z,725.62
2019-05-16T05:57:45.681Z,736.88
2019-05-16T05:58:45.639Z,736.88
2019-05-16T05:59:45.640Z,736.88
2019-05-16T06:00:45.748Z,708.75
2019-05-16T06:01:45.610Z,720.00
2019-05-16T06:02:45.582Z,765.00
2019-05-16T06:03:45.577Z,776.25
2019-05-16T06:04:45.559Z,765.00
2019-05-16T06:05:45.560Z,781.88
2019-05-16T06:06:45.549Z,804.38
2019-05-16T06:07:45.530Z,804.38
2019-05-16T06:08:45.541Z,826.88
2019-05-16T06:09:57.052Z,838.12
2019-05-16T06:10:45.646Z,849.38
2019-05-16T06:11:45.497Z,905.62
2019-05-16T06:12:45.499Z,933.75
2019-05-16T06:13:45.482Z,961.88
2019-05-16T06:14:45.468Z,990.00
2019-05-16T06:15:45.549Z,1046.25
2019-05-16T06:16:45.450Z,1085.62
2019-05-16T06:17:45.431Z,1136.25
2019-05-16T06:18:45.418Z,1085.62
2019-05-16T06:19:45.405Z,1085.62
2019-05-16T06:20:45.398Z,1164.38
2019-05-16T06:21:45.544Z,1175.62
2019-05-16T06:22:45.370Z,1231.88
2019-05-16T06:23:45.380Z,1254.38
2019-05-16T06:24:45.345Z,748.12
2019-05-16T06:25:45.337Z,371.25
2019-05-16T06:26:45.344Z,360.00
2019-05-16T06:27:45.389Z,354.38
2019-05-16T06:28:45.304Z,354.38
2019-05-16T06:29:45.304Z,354.38
2019-05-16T06:30:45.279Z,354.38
2019-05-16T06:31:45.270Z,354.38
2019-05-16T06:32:45.256Z,354.38
2019-05-16T06:33:45.277Z,354.38
2019-05-16T06:34:45.234Z,354.38
2019-05-16T06:35:45.228Z,354.38
2019-05-16T06:36:45.220Z,354.38
2019-05-16T06:37:45.215Z,354.38
2019-05-16T06:38:45.366Z,354.38
2019-05-16T06:39:45.585Z,354.38
2019-05-16T06:41:00.068Z,354.38
2019-05-16T06:41:45.155Z,354.38
2019-05-16T06:42:45.170Z,354.38
2019-05-16T06:43:45.146Z,354.38
2019-05-16T06:44:45.184Z,354.38
2019-05-16T06:45:45.115Z,354.38
2019-05-16T06:46:59.549Z,354.38
2019-05-16T06:47:46.091Z,354.38
2019-05-16T06:48:45.074Z,354.38
2019-05-16T06:49:45.263Z,354.38
2019-05-16T06:50:45.088Z,360.00
2019-05-16T06:51:45.064Z,365.62
2019-05-16T06:53:41.439Z,360.00
2019-05-16T06:54:41.343Z,360.00
2019-05-16T06:55:41.381Z,354.38
2019-05-16T06:56:41.464Z,354.38
2019-05-16T06:57:41.383Z,354.38
2019-05-16T06:58:47.710Z,360.00
2019-05-16T06:59:42.332Z,354.38
2019-05-16T07:00:41.287Z,354.38
2019-05-16T07:01:41.272Z,348.75
2019-05-16T07:02:41.264Z,354.38
2019-05-16T07:03:41.904Z,354.38
2019-05-16T07:04:41.268Z,354.38
2019-05-16T07:05:41.279Z,354.38
2019-05-16T07:06:54.647Z,354.38
2019-05-16T07:07:42.195Z,354.38
2019-05-16T07:08:41.188Z,354.38
2019-05-16T07:09:57.010Z,354.38
2019-05-16T07:10:42.179Z,354.38
2019-05-16T07:11:41.246Z,354.38
2019-05-16T07:12:41.500Z,354.38
2019-05-16T07:13:41.138Z,365.62
2019-05-16T07:14:41.130Z,365.62
2019-05-16T07:15:41.188Z,365.62
2019-05-16T07:16:41.152Z,365.62
2019-05-16T07:17:41.110Z,354.38
2019-05-16T07:18:41.075Z,354.38
2019-05-16T07:19:41.325Z,354.38
2019-05-16T07:20:41.061Z,360.00
2019-05-16T07:21:41.047Z,360.00
2019-05-16T07:22:41.042Z,365.62
2019-05-16T07:23:48.016Z,360.00
2019-05-16T07:24:41.162Z,360.00
2019-05-16T07:25:40.998Z,360.00
2019-05-16T07:26:41.005Z,365.62
2019-05-16T07:27:41.014Z,360.00
2019-05-16T07:28:40.967Z,365.62
2019-05-16T07:29:40.952Z,365.62
2019-05-16T07:30:40.950Z,365.62
2019-05-16T07:31:40.939Z,365.62
2019-05-16T07:32:40.927Z,365.62
2019-05-16T07:33:40.934Z,365.62
2019-05-16T07:34:40.899Z,365.62
2019-05-16T07:35:40.937Z,365.62
2019-05-16T07:36:40.908Z,365.62
2019-05-16T07:37:40.871Z,365.62
2019-05-16T07:38:40.857Z,365.62
2019-05-16T07:39:41.797Z,365.62
2019-05-16T07:40:40.892Z,365.62
2019-05-16T07:41:40.830Z,365.62
2019-05-16T07:42:40.858Z,365.62
2019-05-16T07:43:40.802Z,371.25
2019-05-16T07:44:40.927Z,365.62
2019-05-16T07:45:40.799Z,354.38
2019-05-16T07:46:44.508Z,371.25
2019-05-16T07:47:40.764Z,371.25
2019-05-16T07:48:40.747Z,371.25
2019-05-16T07:49:40.808Z,371.25
2019-05-16T07:50:40.746Z,371.25
2019-05-16T07:51:40.800Z,371.25
2019-05-16T07:52:40.737Z,371.25
2019-05-16T07:53:40.709Z,371.25
2019-05-16T07:54:52.819Z,371.25
2019-05-16T07:55:40.886Z,360.00
2019-05-16T07:56:41.046Z,365.62
2019-05-16T07:57:40.686Z,360.00
2019-05-16T07:58:41.425Z,360.00
2019-05-16T07:59:40.625Z,365.62
2019-05-16T08:00:49.828Z,365.62
2019-05-16T08:01:43.395Z,365.62
2019-05-16T08:02:40.601Z,365.62
2019-05-16T08:03:41.271Z,360.00
2019-05-16T08:04:40.678Z,337.50
2019-05-16T08:05:41.338Z,360.00
2019-05-16T08:06:41.584Z,365.62
2019-05-16T08:07:40.929Z,365.62
2019-05-16T08:08:40.537Z,365.62
2019-05-16T08:09:41.389Z,365.62
2019-05-16T08:10:46.325Z,365.62
2019-05-16T08:11:41.582Z,360.00
2019-05-16T08:12:40.925Z,360.00
2019-05-16T08:13:40.492Z,360.00
2019-05-16T08:14:41.480Z,360.00
2019-05-16T08:15:40.814Z,365.62
2019-05-16T08:16:40.934Z,365.62
2019-05-16T08:17:44.547Z,365.62
2019-05-16T08:18:44.976Z,365.62
2019-05-16T08:19:42.390Z,365.62
2019-05-16T08:20:41.662Z,365.62
2019-05-16T08:21:41.143Z,365.62
2019-05-16T08:22:41.574Z,365.62
2019-05-16T08:23:41.193Z,365.62
2019-05-16T08:24:40.372Z,365.62
2019-05-16T08:25:53.172Z,365.62
2019-05-16T08:26:43.204Z,365.62
2019-05-16T08:27:41.336Z,365.62
2019-05-16T08:28:41.240Z,365.62
2019-05-16T08:29:40.561Z,365.62
2019-05-16T08:30:41.188Z,365.62
2019-05-16T08:31:42.941Z,365.62
2019-05-16T08:33:41.737Z,360.00
2019-05-16T08:34:40.939Z,354.38
2019-05-16T08:35:41.429Z,360.00
2019-05-16T08:36:41.031Z,360.00
2019-05-16T08:37:46.622Z,365.62
2019-05-16T08:38:43.447Z,365.62
2019-05-16T08:39:41.320Z,365.62
2019-05-16T08:41:03.487Z,360.00
2019-05-16T08:42:41.847Z,365.62
2019-05-16T08:43:41.564Z,360.00
2019-05-16T08:44:41.837Z,360.00
2019-05-16T08:47:42.395Z,360.00
2019-05-16T08:48:42.333Z,360.00
2019-05-16T08:49:42.225Z,360.00
2019-05-16T08:50:11.320Z,365.62
2019-05-16T08:50:11.521Z,365.62
2019-05-16T08:50:42.090Z,354.38
2019-05-16T08:51:42.708Z,354.38
2019-05-16T08:52:43.373Z,354.38
2019-05-16T08:53:43.338Z,354.38
2019-05-16T08:54:43.836Z,354.38
2019-05-16T08:55:43.361Z,354.38
2019-05-16T08:56:54.255Z,348.75
2019-05-16T08:57:40.952Z,343.12
2019-05-16T08:58:41.165Z,348.75
2019-05-16T08:59:41.089Z,348.75
2019-05-16T09:00:41.912Z,348.75
2019-05-16T09:01:48.289Z,348.75
2019-05-16T09:03:41.765Z,348.75
2019-05-16T09:05:42.946Z,348.75
2019-05-16T09:06:42.459Z,348.75
2019-05-16T09:07:40.595Z,348.75
2019-05-16T09:08:39.921Z,348.75
2019-05-16T09:09:44.448Z,348.75
2019-05-16T09:10:15.893Z,348.75
2019-05-16T09:10:29.684Z,360.00
2019-05-16T09:10:55.794Z,348.75
2019-05-16T09:11:44.846Z,348.75
2019-05-16T09:12:41.072Z,348.75
2019-05-16T09:13:39.821Z,348.75
2019-05-16T09:14:39.913Z,348.75
2019-05-16T09:15:39.794Z,348.75
2019-05-16T09:16:39.780Z,348.75
2019-05-16T09:17:39.768Z,348.75
2019-05-16T09:18:32.825Z,348.75
2019-05-16T09:18:39.506Z,360.00
2019-05-16T09:18:40.991Z,348.75
2019-05-16T09:19:39.780Z,348.75
2019-05-16T09:20:44.444Z,348.75
2019-05-16T09:21:39.733Z,348.75
2019-05-16T09:22:39.732Z,348.75
2019-05-16T09:23:39.744Z,348.75
2019-05-16T09:24:39.821Z,343.12
2019-05-16T09:25:39.683Z,348.75
2019-05-16T09:26:39.694Z,348.75
2019-05-16T09:27:53.335Z,348.75
2019-05-16T09:28:39.653Z,348.75
2019-05-16T09:29:39.638Z,348.75
2019-05-16T09:30:39.638Z,348.75
2019-05-16T09:31:39.626Z,348.75
2019-05-16T09:32:42.615Z,348.75
2019-05-16T09:33:39.602Z,348.75
2019-05-16T09:34:39.604Z,348.75
2019-05-16T09:35:39.867Z,348.75
2019-05-16T09:36:39.694Z,348.75
2019-05-16T09:37:39.648Z,348.75
2019-05-16T09:38:39.537Z,348.75
2019-05-16T09:39:39.579Z,348.75
2019-05-16T09:40:39.569Z,348.75
2019-05-16T09:41:54.278Z,348.75
2019-05-16T09:42:40.885Z,348.75
2019-05-16T09:43:39.524Z,348.75
2019-05-16T09:44:39.600Z,348.75
2019-05-16T09:45:39.467Z,348.75
2019-05-16T09:46:39.473Z,343.12
2019-05-16T09:47:39.486Z,343.12
2019-05-16T09:48:39.491Z,348.75
2019-05-16T09:49:39.464Z,348.75
2019-05-16T09:50:39.569Z,343.12
2019-05-16T09:51:39.439Z,343.12
2019-05-16T09:52:39.406Z,343.12
2019-05-16T09:53:39.378Z,343.12
2019-05-16T09:54:39.369Z,348.75
2019-05-16T09:55:39.353Z,348.75
2019-05-16T09:56:39.346Z,348.75
2019-05-16T09:57:39.607Z,343.12
2019-05-16T09:58:52.171Z,343.12
2019-05-16T09:59:39.402Z,343.12
2019-05-16T10:00:39.372Z,343.12
2019-05-16T10:01:39.359Z,354.38
2019-05-16T10:02:39.320Z,354.38
2019-05-16T10:03:39.299Z,354.38
2019-05-16T10:04:39.410Z,354.38
2019-05-16T10:05:39.253Z,354.38
2019-05-16T10:06:39.241Z,354.38
2019-05-16T10:07:39.247Z,343.12
2019-05-16T10:08:39.232Z,343.12
2019-05-16T10:09:44.994Z,343.12
2019-05-16T10:10:40.274Z,343.12
2019-05-16T10:11:42.142Z,343.12
2019-05-16T10:12:39.174Z,343.12
2019-05-16T10:13:39.235Z,343.12
2019-05-16T10:14:39.150Z,343.12
2019-05-16T10:15:40.227Z,343.12
2019-05-16T10:16:39.144Z,343.12
2019-05-16T10:17:39.146Z,343.12
2019-05-16T10:18:39.109Z,337.50
2019-05-16T10:19:39.439Z,337.50
2019-05-16T10:20:39.157Z,337.50
2019-05-16T10:21:39.081Z,337.50
2019-05-16T10:22:39.105Z,337.50
2019-05-16T10:23:39.066Z,337.50
2019-05-16T10:24:39.134Z,337.50
2019-05-16T10:25:39.158Z,337.50
2019-05-16T10:26:53.196Z,337.50
2019-05-16T10:27:40.002Z,337.50
2019-05-16T10:28:38.994Z,337.50
2019-05-16T10:29:38.986Z,337.50
2019-05-16T10:30:39.013Z,337.50
2019-05-16T10:31:48.399Z,337.50
2019-05-16T10:32:40.021Z,337.50
2019-05-16T10:33:39.306Z,337.50
2019-05-16T10:34:38.927Z,337.50
2019-05-16T10:35:38.922Z,343.12
2019-05-16T10:36:38.930Z,337.50
2019-05-16T10:37:38.896Z,343.12
2019-05-16T10:38:38.895Z,343.12
2019-05-16T10:39:38.879Z,337.50
2019-05-16T10:40:38.874Z,343.12
2019-05-16T10:41:38.852Z,337.50
2019-05-16T10:42:38.866Z,337.50
2019-05-16T10:43:38.830Z,337.50
2019-05-16T10:44:41.652Z,337.50
2019-05-16T10:45:38.812Z,337.50
2019-05-16T10:46:38.803Z,320.62
2019-05-16T10:47:38.831Z,286.88
2019-05-16T10:48:38.776Z,258.75
2019-05-16T10:49:41.776Z,303.75
2019-05-16T10:50:38.778Z,337.50
2019-05-16T10:51:38.768Z,337.50
2019-05-16T10:52:38.732Z,331.88
2019-05-16T10:54:04.507Z,315.00
2019-05-16T10:54:54.173Z,298.12
2019-05-16T10:55:39.694Z,286.88
2019-05-16T10:56:40.417Z,309.38
2019-05-16T10:57:51.376Z,337.50
2019-05-16T10:59:03.853Z,343.12
2019-05-16T11:00:04.161Z,331.88
2019-05-16T11:01:05.008Z,331.88
2019-05-16T11:01:39.631Z,331.88
2019-05-16T11:02:38.770Z,331.88
2019-05-16T11:03:38.624Z,331.88
2019-05-16T11:04:53.857Z,331.88
2019-05-16T11:05:39.873Z,331.88
2019-05-16T11:06:38.582Z,331.88
2019-05-16T11:07:38.601Z,331.88
2019-05-16T11:08:39.588Z,331.88
2019-05-16T11:09:39.424Z,331.88
2019-05-16T11:10:38.575Z,331.88
2019-05-16T11:11:38.524Z,331.88
2019-05-16T11:12:50.688Z,331.88
2019-05-16T11:13:39.577Z,331.88
2019-05-16T11:14:38.528Z,331.88
2019-05-16T11:15:38.516Z,331.88
2019-05-16T11:16:38.471Z,331.88
2019-05-16T11:17:38.468Z,331.88
2019-05-16T11:18:38.447Z,331.88
2019-05-16T11:19:38.436Z,337.50
2019-05-16T11:20:38.470Z,337.50
2019-05-16T11:21:38.460Z,337.50
2019-05-16T11:22:38.405Z,337.50
2019-05-16T11:23:38.392Z,337.50
2019-05-16T11:24:38.413Z,337.50
2019-05-16T11:25:38.375Z,337.50
2019-05-16T11:26:38.379Z,337.50
2019-05-16T11:27:38.354Z,337.50
2019-05-16T11:28:51.506Z,343.12
2019-05-16T11:29:38.328Z,343.12
2019-05-16T11:30:38.355Z,337.50
2019-05-16T11:31:38.356Z,337.50
2019-05-16T11:32:38.290Z,337.50
2019-05-16T11:33:38.279Z,331.88
2019-05-16T11:34:38.299Z,331.88
2019-05-16T11:35:38.391Z,331.88
2019-05-16T11:36:38.245Z,331.88
2019-05-16T11:37:38.289Z,331.88
2019-05-16T11:38:38.234Z,331.88
2019-05-16T11:39:38.217Z,331.88
2019-05-16T11:40:38.209Z,331.88
2019-05-16T11:41:38.190Z,331.88
2019-05-16T11:42:38.183Z,326.25
2019-05-16T11:43:38.192Z,326.25
2019-05-16T11:44:38.330Z,320.62
2019-05-16T11:45:38.167Z,320.62
2019-05-16T11:46:38.134Z,331.88
2019-05-16T11:47:38.137Z,326.25
2019-05-16T11:48:38.112Z,326.25
2019-05-16T11:49:38.115Z,326.25
2019-05-16T11:50:38.098Z,326.25
2019-05-16T11:51:38.466Z,331.88
2019-05-16T11:52:40.671Z,326.25
2019-05-16T11:53:38.096Z,331.88
2019-05-16T11:54:38.057Z,331.88
2019-05-16T11:55:50.340Z,331.88
2019-05-16T11:56:39.021Z,331.88
2019-05-16T11:57:38.130Z,331.88
2019-05-16T11:58:38.001Z,331.88
2019-05-16T11:59:50.721Z,337.50
2019-05-16T12:00:37.987Z,337.50
2019-05-16T12:01:37.965Z,337.50
2019-05-16T12:02:41.947Z,337.50
2019-05-16T12:03:37.952Z,343.12
2019-05-16T12:04:37.955Z,343.12
2019-05-16T12:05:37.960Z,343.12
2019-05-16T12:06:37.926Z,343.12
2019-05-16T12:07:44.191Z,348.75
2019-05-16T12:08:38.892Z,348.75
2019-05-16T12:09:47.055Z,354.38
2019-05-16T12:10:38.913Z,354.38
2019-05-16T12:11:38.388Z,354.38
2019-05-16T12:12:37.853Z,354.38
2019-05-16T12:13:37.848Z,360.00
2019-05-16T12:14:37.825Z,360.00
2019-05-16T12:15:37.810Z,360.00
2019-05-16T12:16:38.096Z,365.62
2019-05-16T12:17:37.795Z,360.00
2019-05-16T12:18:37.780Z,360.00
2019-05-16T12:19:43.534Z,360.00
2019-05-16T12:20:38.767Z,360.00
2019-05-16T12:21:37.788Z,360.00
2019-05-16T12:22:37.847Z,360.00
2019-05-16T12:23:37.798Z,365.62
2019-05-16T12:24:41.330Z,360.00
2019-05-16T12:25:38.206Z,337.50
2019-05-16T12:26:37.689Z,348.75
2019-05-16T12:27:42.106Z,354.38
2019-05-16T12:28:37.670Z,348.75
2019-05-16T12:29:37.661Z,337.50
2019-05-16T12:30:49.877Z,343.12